<?xml version="1.0" encoding="UTF-8" standalone="no" ?>
<gpx xmlns="http://www.topografix.com/GPX/1/1" xmlns:xsi="http://www.w3.org/2001/XMLSchema-instance" xsi:schemaLocation="http://www.topografix.com/GPX/1/1 http://www.topografix.com/GPX/1/1/gpx.xsd" version="1.1" creator="VisuGPX - https://www.visugpx.com">
  <metadata>
    <name>boucles beaumont</name>
    <desc><![CDATA[boucles beaumont du périgord]]></desc>
  </metadata>
  <trk>
    <name><![CDATA[BBmt72]]></name>
    <trkseg>
      <trkpt lat="44.80708" lon="0.83458">
        <ele>190</ele>
        <time>2009-01-27T10:16:48Z</time>
      </trkpt>
      <trkpt lat="44.80725" lon="0.8345">
        <ele>192</ele>
        <time>2009-01-27T10:17:19Z</time>
      </trkpt>
      <trkpt lat="44.80745" lon="0.83445">
        <ele>192</ele>
        <time>2009-01-27T10:17:36Z</time>
      </trkpt>
      <trkpt lat="44.80765" lon="0.8345">
        <ele>192</ele>
        <time>2009-01-27T10:17:52Z</time>
      </trkpt>
      <trkpt lat="44.80785" lon="0.83455">
        <ele>190</ele>
        <time>2009-01-27T10:18:08Z</time>
      </trkpt>
      <trkpt lat="44.80805" lon="0.83458">
        <ele>186</ele>
        <time>2009-01-27T10:18:26Z</time>
      </trkpt>
      <trkpt lat="44.80825" lon="0.83458">
        <ele>186</ele>
        <time>2009-01-27T10:18:40Z</time>
      </trkpt>
      <trkpt lat="44.80845" lon="0.83458">
        <ele>185</ele>
        <time>2009-01-27T10:18:59Z</time>
      </trkpt>
      <trkpt lat="44.80865" lon="0.8346">
        <ele>187</ele>
        <time>2009-01-27T10:19:11Z</time>
      </trkpt>
      <trkpt lat="44.80885" lon="0.83463">
        <ele>182</ele>
        <time>2009-01-27T10:19:26Z</time>
      </trkpt>
      <trkpt lat="44.80903" lon="0.83455">
        <ele>179</ele>
        <time>2009-01-27T10:19:49Z</time>
      </trkpt>
      <trkpt lat="44.80923" lon="0.83458">
        <ele>176</ele>
        <time>2009-01-27T10:20:06Z</time>
      </trkpt>
      <trkpt lat="44.80943" lon="0.83458">
        <ele>174</ele>
        <time>2009-01-27T10:20:23Z</time>
      </trkpt>
      <trkpt lat="44.80963" lon="0.83458">
        <ele>174</ele>
        <time>2009-01-27T10:20:39Z</time>
      </trkpt>
      <trkpt lat="44.80983" lon="0.83458">
        <ele>174</ele>
        <time>2009-01-27T10:20:53Z</time>
      </trkpt>
      <trkpt lat="44.81" lon="0.8345">
        <ele>176</ele>
        <time>2009-01-27T10:21:09Z</time>
      </trkpt>
      <trkpt lat="44.81015" lon="0.83435">
        <ele>178</ele>
        <time>2009-01-27T10:21:22Z</time>
      </trkpt>
      <trkpt lat="44.81023" lon="0.8341">
        <ele>179</ele>
        <time>2009-01-27T10:21:37Z</time>
      </trkpt>
      <trkpt lat="44.81035" lon="0.8339">
        <ele>178</ele>
        <time>2009-01-27T10:21:51Z</time>
      </trkpt>
      <trkpt lat="44.81043" lon="0.83365">
        <ele>179</ele>
        <time>2009-01-27T10:22:07Z</time>
      </trkpt>
      <trkpt lat="44.8104" lon="0.83338">
        <ele>184</ele>
        <time>2009-01-27T10:22:20Z</time>
      </trkpt>
      <trkpt lat="44.81035" lon="0.83313">
        <ele>190</ele>
        <time>2009-01-27T10:22:34Z</time>
      </trkpt>
      <trkpt lat="44.8103" lon="0.83288">
        <ele>189</ele>
        <time>2009-01-27T10:22:49Z</time>
      </trkpt>
      <trkpt lat="44.81025" lon="0.83263">
        <ele>188</ele>
        <time>2009-01-27T10:23:06Z</time>
      </trkpt>
    </trkseg>
  </trk>
</gpx>